sensor_id;sensor_type;location;lat;lon;timestamp;P1;durP1;ratioP1;P2;durP2;ratioP2
55009;SDS011;40903;51.638;7.528;2022-09-09T00:29:33;363.73;;;347.33;;
55009;SDS011;40903;51.638;7.528;2022-09-09T00:39:44;364.53;;;348.07;;
55009;SDS011;40903;51.638;7.528;2022-09-09T08:16:31;379.63;;;361.17;;
55009;SDS011;40903;51.638;7.528;2022-09-09T08:18:58;406.83;;;387.67;;
55009;SDS011;40903;51.638;7.528;2022-09-09T08:21:25;426.43;;;406.47;;
55009;SDS011;40903;51.638;7.528;2022-09-09T08:23:55;402.23;;;382.97;;
55009;SDS011;40903;51.638;7.528;2022-09-09T08:26:23;411.67;;;391.77;;
55009;SDS011;40903;51.638;7.528;2022-09-09T08:28:54;387.57;;;369.53;;
55009;SDS011;40903;51.638;7.528;2022-09-09T08:31:25;415.20;;;395.50;;
55009;SDS011;40903;51.638;7.528;2022-09-09T08:33:55;386.00;;;367.53;;
55009;SDS011;40903;51.638;7.528;2022-09-09T08:36:23;416.83;;;396.43;;
55009;SDS011;40903;51.638;7.528;2022-09-09T08:38:51;408.03;;;388.37;;
55009;SDS011;40903;51.638;7.528;2022-09-09T08:54:50;434.93;;;413.70;;
55009;SDS011;40903;51.638;7.528;2022-09-09T08:57:19;446.30;;;424.65;;
55009;SDS011;40903;51.638;7.528;2022-09-09T10:31:25;499.07;;;472.70;;
55009;SDS011;40903;51.638;7.528;2022-09-09T10:36:31;477.60;;;451.97;;
55009;SDS011;40903;51.638;7.528;2022-09-09T10:52:52;475.40;;;450.37;;
55009;SDS011;40903;51.638;7.528;2022-09-09T10:55:31;500.67;;;474.37;;
55009;SDS011;40903;51.638;7.528;2022-09-09T10:58:02;488.23;;;462.40;;
55009;SDS011;40903;51.638;7.528;2022-09-09T11:00:38;455.97;;;431.43;;
55009;SDS011;40903;51.638;7.528;2022-09-09T11:03:04;401.33;;;379.57;;
55009;SDS011;40903;51.638;7.528;2022-09-09T11:05:44;423.37;;;399.93;;
55009;SDS011;40903;51.638;7.528;2022-09-09T11:08:18;442.37;;;418.90;;
55009;SDS011;40903;51.638;7.528;2022-09-09T11:11:00;447.23;;;424.17;;
55009;SDS011;40903;51.638;7.528;2022-09-09T11:13:36;435.97;;;412.70;;
55009;SDS011;40903;51.638;7.528;2022-09-09T11:16:15;438.37;;;414.83;;
55009;SDS011;40903;51.638;7.528;2022-09-09T11:18:46;460.83;;;436.47;;
55009;SDS011;40903;51.638;7.528;2022-09-09T11:21:22;420.53;;;398.17;;
55009;SDS011;40903;51.638;7.528;2022-09-09T11:23:55;450.20;;;426.43;;
55009;SDS011;40903;51.638;7.528;2022-09-09T11:26:41;423.70;;;400.50;;
55009;SDS011;40903;51.638;7.528;2022-09-09T11:29:26;430.80;;;407.50;;
55009;SDS011;40903;51.638;7.528;2022-09-09T11:32:20;477.03;;;452.40;;
55009;SDS011;40903;51.638;7.528;2022-09-09T11:38:25;454.57;;;430.57;;
55009;SDS011;40903;51.638;7.528;2022-09-09T11:40:59;466.20;;;440.57;;
55009;SDS011;40903;51.638;7.528;2022-09-09T11:43:38;421.80;;;399.43;;
55009;SDS011;40903;51.638;7.528;2022-09-09T11:46:07;436.30;;;411.83;;
55009;SDS011;40903;51.638;7.528;2022-09-09T11:48:35;394.33;;;373.23;;
55009;SDS011;40903;51.638;7.528;2022-09-09T11:51:09;376.27;;;356.20;;
55009;SDS011;40903;51.638;7.528;2022-09-09T11:53:50;435.43;;;411.97;;
55009;SDS011;40903;51.638;7.528;2022-09-09T11:56:27;398.57;;;377.87;;
55009;SDS011;40903;51.638;7.528;2022-09-09T11:59:00;404.83;;;382.60;;
55009;SDS011;40903;51.638;7.528;2022-09-09T12:01:29;432.87;;;409.50;;
55009;SDS011;40903;51.638;7.528;2022-09-09T12:04:09;459.43;;;434.70;;
55009;SDS011;40903;51.638;7.528;2022-09-09T12:06:42;485.03;;;459.27;;
55009;SDS011;40903;51.638;7.528;2022-09-09T12:12:25;505.73;;;479.17;;
55009;SDS011;40903;51.638;7.528;2022-09-09T12:17:47;450.93;;;426.23;;
55009;SDS011;40903;51.638;7.528;2022-09-09T12:20:22;432.93;;;409.77;;
55009;SDS011;40903;51.638;7.528;2022-09-09T12:25:29;414.33;;;391.60;;
55009;SDS011;40903;51.638;7.528;2022-09-09T12:28:20;447.57;;;423.67;;
55009;SDS011;40903;51.638;7.528;2022-09-09T12:33:33;460.70;;;436.83;;
55009;SDS011;40903;51.638;7.528;2022-09-09T12:36:00;462.73;;;438.73;;
55009;SDS011;40903;51.638;7.528;2022-09-09T12:38:36;473.80;;;449.00;;
55009;SDS011;40903;51.638;7.528;2022-09-09T12:41:04;479.27;;;454.03;;
55009;SDS011;40903;51.638;7.528;2022-09-09T12:43:29;476.17;;;450.47;;
55009;SDS011;40903;51.638;7.528;2022-09-09T12:45:57;466.37;;;441.60;;
55009;SDS011;40903;51.638;7.528;2022-09-09T12:48:30;498.73;;;472.03;;
55009;SDS011;40903;51.638;7.528;2022-09-09T12:51:01;499.33;;;473.60;;
55009;SDS011;40903;51.638;7.528;2022-09-09T12:56:07;521.43;;;494.37;;
55009;SDS011;40903;51.638;7.528;2022-09-09T12:58:44;527.80;;;500.63;;
55009;SDS011;40903;51.638;7.528;2022-09-09T13:01:18;501.40;;;475.67;;
55009;SDS011;40903;51.638;7.528;2022-09-09T13:03:47;510.43;;;484.07;;
55009;SDS011;40903;51.638;7.528;2022-09-09T13:06:16;471.37;;;447.30;;
55009;SDS011;40903;51.638;7.528;2022-09-09T13:08:47;485.10;;;460.13;;
55009;SDS011;40903;51.638;7.528;2022-09-09T13:11:15;470.20;;;445.70;;
55009;SDS011;40903;51.638;7.528;2022-09-09T13:13:50;498.43;;;473.10;;
55009;SDS011;40903;51.638;7.528;2022-09-09T13:16:19;477.97;;;453.67;;
55009;SDS011;40903;51.638;7.528;2022-09-09T13:18:51;474.00;;;449.87;;
55009;SDS011;40903;51.638;7.528;2022-09-09T13:21:18;518.60;;;492.13;;
55009;SDS011;40903;51.638;7.528;2022-09-09T13:23:48;485.07;;;460.93;;
55009;SDS011;40903;51.638;7.528;2022-09-09T13:26:21;478.87;;;454.63;;
55009;SDS011;40903;51.638;7.528;2022-09-09T13:28:52;466.03;;;442.97;;
55009;SDS011;40903;51.638;7.528;2022-09-09T13:31:23;508.40;;;482.43;;
55009;SDS011;40903;51.638;7.528;2022-09-09T13:33:49;483.20;;;459.40;;
55009;SDS011;40903;51.638;7.528;2022-09-09T13:36:15;459.13;;;435.90;;
55009;SDS011;40903;51.638;7.528;2022-09-09T13:38:53;469.27;;;445.30;;
55009;SDS011;40903;51.638;7.528;2022-09-09T13:41:25;475.33;;;450.77;;
55009;SDS011;40903;51.638;7.528;2022-09-09T13:44:23;486.07;;;460.97;;
55009;SDS011;40903;51.638;7.528;2022-09-09T13:47:05;480.80;;;455.87;;
55009;SDS011;40903;51.638;7.528;2022-09-09T13:49:42;496.37;;;471.63;;
55009;SDS011;40903;51.638;7.528;2022-09-09T13:52:11;479.33;;;454.97;;
55009;SDS011;40903;51.638;7.528;2022-09-09T13:54:41;463.30;;;439.27;;
55009;SDS011;40903;51.638;7.528;2022-09-09T13:57:21;476.87;;;452.63;;
55009;SDS011;40903;51.638;7.528;2022-09-09T13:59:49;491.47;;;465.57;;
55009;SDS011;40903;51.638;7.528;2022-09-09T14:02:15;480.37;;;455.40;;
55009;SDS011;40903;51.638;7.528;2022-09-09T14:04:41;470.60;;;446.27;;
55009;SDS011;40903;51.638;7.528;2022-09-09T14:07:14;490.87;;;465.87;;
55009;SDS011;40903;51.638;7.528;2022-09-09T14:09:41;493.40;;;468.17;;
55009;SDS011;40903;51.638;7.528;2022-09-09T14:12:13;473.03;;;447.93;;
55009;SDS011;40903;51.638;7.528;2022-09-09T14:14:40;477.77;;;453.13;;
55009;SDS011;40903;51.638;7.528;2022-09-09T14:17:07;455.03;;;431.33;;
55009;SDS011;40903;51.638;7.528;2022-09-09T14:19:32;480.73;;;456.23;;
55009;SDS011;40903;51.638;7.528;2022-09-09T14:21:58;481.40;;;456.77;;
55009;SDS011;40903;51.638;7.528;2022-09-09T14:24:24;494.37;;;468.63;;
55009;SDS011;40903;51.638;7.528;2022-09-09T14:26:53;513.97;;;487.47;;
55009;SDS011;40903;51.638;7.528;2022-09-09T14:29:19;483.50;;;458.47;;
55009;SDS011;40903;51.638;7.528;2022-09-09T14:31:44;487.03;;;462.47;;
55009;SDS011;40903;51.638;7.528;2022-09-09T14:34:09;462.00;;;438.27;;
55009;SDS011;40903;51.638;7.528;2022-09-09T14:36:36;483.17;;;457.80;;
55009;SDS011;40903;51.638;7.528;2022-09-09T14:39:01;458.83;;;435.57;;
55009;SDS011;40903;51.638;7.528;2022-09-09T14:41:27;456.10;;;432.70;;
55009;SDS011;40903;51.638;7.528;2022-09-09T14:43:54;465.63;;;441.30;;
55009;SDS011;40903;51.638;7.528;2022-09-09T14:46:19;467.60;;;443.23;;
55009;SDS011;40903;51.638;7.528;2022-09-09T14:48:45;452.43;;;429.90;;
55009;SDS011;40903;51.638;7.528;2022-09-09T14:51:23;445.77;;;423.10;;
55009;SDS011;40903;51.638;7.528;2022-09-09T14:53:52;458.90;;;435.13;;
55009;SDS011;40903;51.638;7.528;2022-09-09T14:56:24;508.00;;;482.10;;
55009;SDS011;40903;51.638;7.528;2022-09-09T14:58:52;507.03;;;481.50;;
55009;SDS011;40903;51.638;7.528;2022-09-09T15:01:20;480.53;;;455.67;;
55009;SDS011;40903;51.638;7.528;2022-09-09T15:03:52;533.23;;;506.07;;
55009;SDS011;40903;51.638;7.528;2022-09-09T15:06:19;501.90;;;476.20;;
55009;SDS011;40903;51.638;7.528;2022-09-09T15:08:45;515.20;;;488.53;;
55009;SDS011;40903;51.638;7.528;2022-09-09T15:11:12;534.17;;;506.40;;
55009;SDS011;40903;51.638;7.528;2022-09-09T15:13:39;521.70;;;493.87;;
55009;SDS011;40903;51.638;7.528;2022-09-09T15:16:07;508.57;;;481.60;;
55009;SDS011;40903;51.638;7.528;2022-09-09T15:18:38;538.10;;;510.87;;
55009;SDS011;40903;51.638;7.528;2022-09-09T15:21:07;524.53;;;496.13;;
55009;SDS011;40903;51.638;7.528;2022-09-09T15:23:37;530.40;;;502.73;;
55009;SDS011;40903;51.638;7.528;2022-09-09T15:26:03;490.80;;;464.73;;
55009;SDS011;40903;51.638;7.528;2022-09-09T15:28:29;501.37;;;474.60;;
55009;SDS011;40903;51.638;7.528;2022-09-09T15:30:57;490.83;;;465.77;;
55009;SDS011;40903;51.638;7.528;2022-09-09T15:33:23;484.00;;;458.37;;
55009;SDS011;40903;51.638;7.528;2022-09-09T15:35:48;531.77;;;504.57;;
55009;SDS011;40903;51.638;7.528;2022-09-09T15:38:14;512.47;;;485.43;;
55009;SDS011;40903;51.638;7.528;2022-09-09T15:40:41;517.83;;;490.33;;
55009;SDS011;40903;51.638;7.528;2022-09-09T15:43:07;511.20;;;484.60;;
55009;SDS011;40903;51.638;7.528;2022-09-09T15:45:34;519.93;;;493.13;;
55009;SDS011;40903;51.638;7.528;2022-09-09T15:48:00;489.70;;;464.70;;
55009;SDS011;40903;51.638;7.528;2022-09-09T15:50:26;517.43;;;490.50;;
55009;SDS011;40903;51.638;7.528;2022-09-09T15:52:52;467.43;;;443.67;;
55009;SDS011;40903;51.638;7.528;2022-09-09T15:55:18;410.67;;;390.33;;
55009;SDS011;40903;51.638;7.528;2022-09-09T15:57:45;431.03;;;409.23;;
55009;SDS011;40903;51.638;7.528;2022-09-09T16:00:11;451.80;;;429.70;;
55009;SDS011;40903;51.638;7.528;2022-09-09T16:02:38;419.83;;;400.37;;
55009;SDS011;40903;51.638;7.528;2022-09-09T16:05:03;405.67;;;386.63;;
55009;SDS011;40903;51.638;7.528;2022-09-09T16:07:29;411.27;;;392.13;;
55009;SDS011;40903;51.638;7.528;2022-09-09T16:09:54;400.67;;;381.87;;
55009;SDS011;40903;51.638;7.528;2022-09-09T16:12:20;390.20;;;371.83;;
55009;SDS011;40903;51.638;7.528;2022-09-09T16:14:46;387.27;;;369.57;;
55009;SDS011;40903;51.638;7.528;2022-09-09T16:17:11;418.27;;;398.70;;
55009;SDS011;40903;51.638;7.528;2022-09-09T16:19:37;390.60;;;372.03;;
55009;SDS011;40903;51.638;7.528;2022-09-09T16:22:02;411.73;;;392.77;;
55009;SDS011;40903;51.638;7.528;2022-09-09T16:24:31;399.57;;;381.03;;
55009;SDS011;40903;51.638;7.528;2022-09-09T16:26:57;395.13;;;377.20;;
55009;SDS011;40903;51.638;7.528;2022-09-09T16:29:22;390.30;;;372.23;;
55009;SDS011;40903;51.638;7.528;2022-09-09T16:31:49;403.40;;;384.37;;
55009;SDS011;40903;51.638;7.528;2022-09-09T16:34:15;394.77;;;376.47;;
55009;SDS011;40903;51.638;7.528;2022-09-09T16:36:42;391.27;;;372.80;;
55009;SDS011;40903;51.638;7.528;2022-09-09T16:39:10;405.33;;;387.03;;
55009;SDS011;40903;51.638;7.528;2022-09-09T16:41:38;381.17;;;363.73;;
55009;SDS011;40903;51.638;7.528;2022-09-09T16:44:06;380.40;;;363.00;;
55009;SDS011;40903;51.638;7.528;2022-09-09T16:46:35;405.97;;;387.17;;
55009;SDS011;40903;51.638;7.528;2022-09-09T16:49:03;379.13;;;361.87;;
55009;SDS011;40903;51.638;7.528;2022-09-09T16:51:32;399.40;;;380.83;;
55009;SDS011;40903;51.638;7.528;2022-09-09T16:54:08;408.17;;;389.83;;
55009;SDS011;40903;51.638;7.528;2022-09-09T16:56:38;373.70;;;356.30;;
55009;SDS011;40903;51.638;7.528;2022-09-09T16:59:11;378.60;;;361.30;;
55009;SDS011;40903;51.638;7.528;2022-09-09T17:01:42;387.43;;;369.67;;
55009;SDS011;40903;51.638;7.528;2022-09-09T17:04:15;410.70;;;391.60;;
55009;SDS011;40903;51.638;7.528;2022-09-09T17:06:45;395.73;;;378.10;;
55009;SDS011;40903;51.638;7.528;2022-09-09T17:09:14;420.23;;;400.83;;
55009;SDS011;40903;51.638;7.528;2022-09-09T17:11:39;414.60;;;395.70;;
55009;SDS011;40903;51.638;7.528;2022-09-09T17:14:06;387.80;;;370.13;;
55009;SDS011;40903;51.638;7.528;2022-09-09T17:16:34;406.53;;;387.80;;
55009;SDS011;40903;51.638;7.528;2022-09-09T17:19:00;394.10;;;376.13;;
55009;SDS011;40903;51.638;7.528;2022-09-09T17:21:28;391.90;;;373.60;;
55009;SDS011;40903;51.638;7.528;2022-09-09T17:23:55;410.37;;;391.23;;
55009;SDS011;40903;51.638;7.528;2022-09-09T17:26:22;382.03;;;364.47;;
55009;SDS011;40903;51.638;7.528;2022-09-09T17:28:51;400.73;;;382.27;;
55009;SDS011;40903;51.638;7.528;2022-09-09T17:31:17;393.97;;;375.73;;
55009;SDS011;40903;51.638;7.528;2022-09-09T17:33:44;370.47;;;353.07;;
55009;SDS011;40903;51.638;7.528;2022-09-09T17:36:14;378.13;;;360.73;;
55009;SDS011;40903;51.638;7.528;2022-09-09T17:38:47;390.10;;;372.67;;
55009;SDS011;40903;51.638;7.528;2022-09-09T17:43:46;381.43;;;363.80;;
55009;SDS011;40903;51.638;7.528;2022-09-09T17:46:23;398.23;;;379.90;;
55009;SDS011;40903;51.638;7.528;2022-09-09T17:49:11;365.57;;;349.10;;
55009;SDS011;40903;51.638;7.528;2022-09-09T17:51:37;375.80;;;358.77;;
55009;SDS011;40903;51.638;7.528;2022-09-09T17:54:05;366.90;;;350.57;;
55009;SDS011;40903;51.638;7.528;2022-09-09T17:56:34;395.83;;;377.63;;
55009;SDS011;40903;51.638;7.528;2022-09-09T17:59:01;344.73;;;329.10;;
55009;SDS011;40903;51.638;7.528;2022-09-09T18:01:29;363.17;;;346.70;;
55009;SDS011;40903;51.638;7.528;2022-09-09T18:03:56;387.50;;;370.17;;
55009;SDS011;40903;51.638;7.528;2022-09-09T18:06:27;385.80;;;368.43;;
55009;SDS011;40903;51.638;7.528;2022-09-09T18:08:58;367.57;;;351.40;;
55009;SDS011;40903;51.638;7.528;2022-09-09T18:11:28;370.50;;;353.97;;
55009;SDS011;40903;51.638;7.528;2022-09-09T18:13:56;384.60;;;367.70;;
55009;SDS011;40903;51.638;7.528;2022-09-09T18:16:24;381.77;;;364.50;;
55009;SDS011;40903;51.638;7.528;2022-09-09T18:18:51;373.87;;;357.13;;
55009;SDS011;40903;51.638;7.528;2022-09-09T18:21:17;376.23;;;358.83;;
55009;SDS011;40903;51.638;7.528;2022-09-09T18:23:44;377.33;;;360.53;;
55009;SDS011;40903;51.638;7.528;2022-09-09T18:26:14;367.20;;;350.67;;
55009;SDS011;40903;51.638;7.528;2022-09-09T18:28:41;368.27;;;351.30;;
55009;SDS011;40903;51.638;7.528;2022-09-09T18:31:11;395.87;;;377.63;;
55009;SDS011;40903;51.638;7.528;2022-09-09T18:33:39;361.67;;;344.90;;
55009;SDS011;40903;51.638;7.528;2022-09-09T18:36:07;355.40;;;338.80;;
55009;SDS011;40903;51.638;7.528;2022-09-09T18:38:35;381.57;;;364.07;;
55009;SDS011;40903;51.638;7.528;2022-09-09T18:41:11;381.00;;;363.90;;
55009;SDS011;40903;51.638;7.528;2022-09-09T18:43:37;369.87;;;353.17;;
55009;SDS011;40903;51.638;7.528;2022-09-09T18:46:03;386.27;;;368.80;;
55009;SDS011;40903;51.638;7.528;2022-09-09T18:48:29;366.47;;;350.20;;
55009;SDS011;40903;51.638;7.528;2022-09-09T18:51:00;348.27;;;332.13;;
55009;SDS011;40903;51.638;7.528;2022-09-09T18:53:27;353.13;;;337.10;;
55009;SDS011;40903;51.638;7.528;2022-09-09T18:55:59;369.07;;;352.23;;
55009;SDS011;40903;51.638;7.528;2022-09-09T18:58:26;370.67;;;354.40;;
55009;SDS011;40903;51.638;7.528;2022-09-09T19:00:52;355.13;;;339.00;;
55009;SDS011;40903;51.638;7.528;2022-09-09T19:03:17;365.30;;;348.37;;
55009;SDS011;40903;51.638;7.528;2022-09-09T19:05:42;352.93;;;337.03;;
55009;SDS011;40903;51.638;7.528;2022-09-09T19:08:08;353.27;;;337.40;;
55009;SDS011;40903;51.638;7.528;2022-09-09T19:10:36;358.97;;;342.73;;
55009;SDS011;40903;51.638;7.528;2022-09-09T19:13:01;358.13;;;342.37;;
55009;SDS011;40903;51.638;7.528;2022-09-09T19:15:26;369.20;;;352.83;;
55009;SDS011;40903;51.638;7.528;2022-09-09T19:17:53;346.30;;;330.53;;
55009;SDS011;40903;51.638;7.528;2022-09-09T19:20:20;357.97;;;342.57;;
55009;SDS011;40903;51.638;7.528;2022-09-09T19:22:47;360.67;;;344.63;;
55009;SDS011;40903;51.638;7.528;2022-09-09T19:25:13;356.27;;;340.00;;
55009;SDS011;40903;51.638;7.528;2022-09-09T19:27:40;375.37;;;358.53;;
55009;SDS011;40903;51.638;7.528;2022-09-09T19:30:07;368.37;;;352.30;;
55009;SDS011;40903;51.638;7.528;2022-09-09T19:32:34;371.13;;;354.93;;
55009;SDS011;40903;51.638;7.528;2022-09-09T19:35:01;385.07;;;368.57;;
55009;SDS011;40903;51.638;7.528;2022-09-09T19:37:27;336.33;;;320.73;;
55009;SDS011;40903;51.638;7.528;2022-09-09T19:39:53;346.23;;;330.70;;
55009;SDS011;40903;51.638;7.528;2022-09-09T19:42:19;361.37;;;345.63;;
55009;SDS011;40903;51.638;7.528;2022-09-09T19:44:44;353.90;;;338.10;;
55009;SDS011;40903;51.638;7.528;2022-09-09T19:47:10;366.83;;;350.33;;
55009;SDS011;40903;51.638;7.528;2022-09-09T19:49:38;346.23;;;330.80;;
55009;SDS011;40903;51.638;7.528;2022-09-09T19:52:04;368.63;;;352.13;;
55009;SDS011;40903;51.638;7.528;2022-09-09T19:54:30;366.17;;;349.90;;
55009;SDS011;40903;51.638;7.528;2022-09-09T19:56:56;362.53;;;346.63;;
55009;SDS011;40903;51.638;7.528;2022-09-09T19:59:21;333.77;;;319.03;;
55009;SDS011;40903;51.638;7.528;2022-09-09T20:01:47;374.47;;;357.70;;
55009;SDS011;40903;51.638;7.528;2022-09-09T20:04:12;356.60;;;341.10;;
55009;SDS011;40903;51.638;7.528;2022-09-09T20:06:39;351.53;;;336.20;;
55009;SDS011;40903;51.638;7.528;2022-09-09T20:09:09;361.83;;;345.77;;
55009;SDS011;40903;51.638;7.528;2022-09-09T20:11:38;358.00;;;342.10;;
55009;SDS011;40903;51.638;7.528;2022-09-09T20:14:04;354.83;;;338.90;;
55009;SDS011;40903;51.638;7.528;2022-09-09T20:16:30;364.73;;;348.53;;
55009;SDS011;40903;51.638;7.528;2022-09-09T20:18:59;341.27;;;326.27;;
55009;SDS011;40903;51.638;7.528;2022-09-09T20:21:36;355.93;;;339.30;;
55009;SDS011;40903;51.638;7.528;2022-09-09T20:24:05;374.13;;;357.63;;
55009;SDS011;40903;51.638;7.528;2022-09-09T20:26:34;367.57;;;351.40;;
55009;SDS011;40903;51.638;7.528;2022-09-09T20:29:02;366.70;;;350.47;;
55009;SDS011;40903;51.638;7.528;2022-09-09T20:31:31;361.17;;;345.30;;
55009;SDS011;40903;51.638;7.528;2022-09-09T20:34:00;340.23;;;325.27;;
55009;SDS011;40903;51.638;7.528;2022-09-09T20:36:29;321.53;;;306.87;;
55009;SDS011;40903;51.638;7.528;2022-09-09T20:39:04;349.43;;;334.00;;
55009;SDS011;40903;51.638;7.528;2022-09-09T20:41:32;344.53;;;329.53;;
55009;SDS011;40903;51.638;7.528;2022-09-09T20:44:00;355.83;;;340.43;;
55009;SDS011;40903;51.638;7.528;2022-09-09T20:46:34;362.43;;;346.30;;
55009;SDS011;40903;51.638;7.528;2022-09-09T20:49:02;353.13;;;337.97;;
55009;SDS011;40903;51.638;7.528;2022-09-09T20:51:28;358.80;;;342.57;;
55009;SDS011;40903;51.638;7.528;2022-09-09T20:53:57;353.57;;;337.90;;
55009;SDS011;40903;51.638;7.528;2022-09-09T20:56:28;361.60;;;345.97;;
55009;SDS011;40903;51.638;7.528;2022-09-09T20:58:57;362.67;;;347.23;;
55009;SDS011;40903;51.638;7.528;2022-09-09T21:01:22;329.80;;;315.40;;
55009;SDS011;40903;51.638;7.528;2022-09-09T21:03:48;351.90;;;336.23;;
55009;SDS011;40903;51.638;7.528;2022-09-09T21:06:13;348.23;;;333.10;;
55009;SDS011;40903;51.638;7.528;2022-09-09T21:08:39;351.30;;;335.67;;
55009;SDS011;40903;51.638;7.528;2022-09-09T21:11:05;357.80;;;342.10;;
55009;SDS011;40903;51.638;7.528;2022-09-09T21:13:31;356.63;;;341.00;;
55009;SDS011;40903;51.638;7.528;2022-09-09T21:15:57;348.63;;;333.63;;
55009;SDS011;40903;51.638;7.528;2022-09-09T21:18:23;353.20;;;338.03;;
55009;SDS011;40903;51.638;7.528;2022-09-09T21:20:51;358.43;;;342.80;;
55009;SDS011;40903;51.638;7.528;2022-09-09T21:23:17;333.13;;;318.63;;
55009;SDS011;40903;51.638;7.528;2022-09-09T21:25:43;366.67;;;350.90;;
55009;SDS011;40903;51.638;7.528;2022-09-09T21:28:08;344.93;;;330.00;;
55009;SDS011;40903;51.638;7.528;2022-09-09T21:30:35;356.07;;;340.30;;
55009;SDS011;40903;51.638;7.528;2022-09-09T21:33:02;339.70;;;324.67;;
55009;SDS011;40903;51.638;7.528;2022-09-09T21:35:29;361.77;;;346.03;;
55009;SDS011;40903;51.638;7.528;2022-09-09T21:37:59;347.17;;;331.77;;
55009;SDS011;40903;51.638;7.528;2022-09-09T21:40:24;332.67;;;317.90;;
55009;SDS011;40903;51.638;7.528;2022-09-09T21:42:50;366.27;;;350.17;;
55009;SDS011;40903;51.638;7.528;2022-09-09T21:45:15;334.30;;;319.73;;
55009;SDS011;40903;51.638;7.528;2022-09-09T21:47:45;321.53;;;307.70;;
55009;SDS011;40903;51.638;7.528;2022-09-09T21:50:11;352.60;;;336.80;;
55009;SDS011;40903;51.638;7.528;2022-09-09T21:52:37;352.30;;;337.10;;
55009;SDS011;40903;51.638;7.528;2022-09-09T21:55:02;343.60;;;327.90;;
55009;SDS011;40903;51.638;7.528;2022-09-09T21:57:28;328.60;;;314.50;;
55009;SDS011;40903;51.638;7.528;2022-09-09T21:59:54;346.43;;;330.83;;
55009;SDS011;40903;51.638;7.528;2022-09-09T22:02:19;332.23;;;318.03;;
55009;SDS011;40903;51.638;7.528;2022-09-09T22:04:45;337.47;;;322.83;;
55009;SDS011;40903;51.638;7.528;2022-09-09T22:07:11;353.27;;;338.20;;
55009;SDS011;40903;51.638;7.528;2022-09-09T22:09:36;317.27;;;302.80;;
55009;SDS011;40903;51.638;7.528;2022-09-09T22:12:02;320.73;;;306.90;;
55009;SDS011;40903;51.638;7.528;2022-09-09T22:14:27;333.30;;;318.70;;
55009;SDS011;40903;51.638;7.528;2022-09-09T22:16:52;336.50;;;322.03;;
55009;SDS011;40903;51.638;7.528;2022-09-09T22:19:18;324.77;;;311.23;;
55009;SDS011;40903;51.638;7.528;2022-09-09T22:21:43;336.30;;;321.57;;
55009;SDS011;40903;51.638;7.528;2022-09-09T22:24:10;351.67;;;336.20;;
55009;SDS011;40903;51.638;7.528;2022-09-09T22:26:37;341.40;;;326.47;;
55009;SDS011;40903;51.638;7.528;2022-09-09T22:29:03;331.63;;;317.13;;
55009;SDS011;40903;51.638;7.528;2022-09-09T22:31:31;329.60;;;315.40;;
55009;SDS011;40903;51.638;7.528;2022-09-09T22:33:57;336.93;;;322.03;;
55009;SDS011;40903;51.638;7.528;2022-09-09T22:36:22;346.60;;;331.97;;
55009;SDS011;40903;51.638;7.528;2022-09-09T22:38:49;332.27;;;317.23;;
55009;SDS011;40903;51.638;7.528;2022-09-09T22:41:15;344.40;;;329.50;;
55009;SDS011;40903;51.638;7.528;2022-09-09T22:43:42;343.83;;;328.67;;
55009;SDS011;40903;51.638;7.528;2022-09-09T22:46:08;350.57;;;335.47;;
55009;SDS011;40903;51.638;7.528;2022-09-09T22:48:35;340.83;;;325.47;;
55009;SDS011;40903;51.638;7.528;2022-09-09T22:51:08;334.07;;;319.63;;
55009;SDS011;40903;51.638;7.528;2022-09-09T22:53:38;346.47;;;330.70;;
55009;SDS011;40903;51.638;7.528;2022-09-09T22:56:05;356.07;;;340.60;;
